Time;durP1;ratioP1;P1;durP2;ratioP2;P2;SDS_P1;SDS_P2;PMS_P1;PMS_P2;Temp;Humidity;BMP_temperature;BMP_pressure;BME280_temperature;BME280_humidity;BME280_pressure;Samples;Min_cycle;Max_cycle;Signal;HPM_P1;HPM_P2
2021/01/25 00:00:17;;;;;;;0.00;0.00;;;9.40;99.90;;;;;;5050254;28;20596;-88
2021/01/25 00:02:43;;;;;;;0.10;0.10;;;9.30;99.90;;;;;;5061764;28;20017;-89
2021/01/25 00:05:09;;;;;;;0.13;0.13;;;9.20;99.90;;;;;;5072775;28;20021;-89
2021/01/25 00:07:36;;;;;;;0.08;0.08;;;9.20;99.90;;;;;;5073133;28;20108;-89
2021/01/25 00:10:03;;;;;;;0.10;0.10;;;9.20;99.90;;;;;;5072891;28;20035;-90
2021/01/25 00:12:29;;;;;;;0.25;0.25;;;9.20;99.90;;;;;;5072266;28;20024;-89
2021/01/25 00:14:55;;;;;;;0.20;0.20;;;9.10;99.90;;;;;;5054604;28;20024;-90
2021/01/25 00:17:21;;;;;;;0.10;0.10;;;9.10;99.90;;;;;;5054425;28;20024;-90
2021/01/25 00:19:47;;;;;;;0.00;0.00;;;9.10;99.90;;;;;;5072219;28;20131;-90
2021/01/25 00:22:13;;;;;;;0.10;0.10;;;9.10;99.90;;;;;;5057899;28;20033;-90
2021/01/25 00:24:39;;;;;;;0.10;0.10;;;9.10;99.90;;;;;;5072603;28;20027;-90
2021/01/25 00:27:05;;;;;;;0.10;0.10;;;9.10;99.90;;;;;;5072444;28;20016;-89
2021/01/25 00:29:31;;;;;;;1.10;0.85;;;9.00;99.90;;;;;;5072861;28;20024;-89
2021/01/25 00:31:58;;;;;;;0.00;0.00;;;9.00;99.90;;;;;;5073027;28;20082;-89
2021/01/25 00:34:25;;;;;;;0.10;0.10;;;8.90;99.90;;;;;;5054656;28;20780;-90
2021/01/25 00:36:51;;;;;;;0.03;0.03;;;8.90;99.90;;;;;;5043542;28;20391;-89
2021/01/25 00:39:16;;;;;;;0.30;0.30;;;8.90;99.90;;;;;;5053413;28;20029;-89
2021/01/25 00:41:42;;;;;;;0.10;0.10;;;8.90;99.90;;;;;;5053310;28;20028;-89
2021/01/25 00:44:08;;;;;;;1.48;1.27;;;8.90;99.90;;;;;;5071313;28;20025;-89
2021/01/25 00:46:34;;;;;;;0.03;0.03;;;8.90;99.90;;;;;;5070980;28;20116;-88
2021/01/25 00:49:00;;;;;;;0.10;0.10;;;8.80;99.90;;;;;;5053263;28;20035;-89
2021/01/25 00:51:26;;;;;;;0.00;0.00;;;8.80;99.90;;;;;;5057797;28;20041;-89
2021/01/25 00:53:51;;;;;;;0.05;0.05;;;8.80;99.90;;;;;;5053273;28;20063;-89
2021/01/25 00:56:17;;;;;;;0.10;0.10;;;8.80;99.90;;;;;;5052630;28;20074;-89
2021/01/25 00:58:43;;;;;;;0.10;0.10;;;8.80;99.90;;;;;;5071408;28;20017;-89
2021/01/25 01:01:09;;;;;;;0.00;0.00;;;8.80;99.90;;;;;;5053435;28;20036;-89
2021/01/25 01:03:35;;;;;;;0.10;0.10;;;8.80;99.90;;;;;;5052747;28;20028;-89
2021/01/25 01:06:01;;;;;;;0.10;0.10;;;8.80;99.90;;;;;;5070751;28;20029;-89
2021/01/25 01:08:27;;;;;;;0.00;0.00;;;8.80;99.90;;;;;;5070745;28;20516;-89
2021/01/25 01:10:53;;;;;;;0.10;0.10;;;8.80;99.90;;;;;;5069853;28;20036;-89
2021/01/25 01:13:19;;;;;;;0.52;0.52;;;8.90;99.90;;;;;;5071003;28;20363;-89
2021/01/25 01:15:45;;;;;;;0.10;0.10;;;8.90;99.90;;;;;;5052520;28;20050;-89
2021/01/25 01:18:11;;;;;;;0.00;0.00;;;8.90;99.90;;;;;;5052736;28;20032;-89
2021/01/25 01:20:37;;;;;;;0.10;0.10;;;8.90;99.90;;;;;;5052328;28;20493;-89
2021/01/25 01:23:03;;;;;;;0.10;0.10;;;8.90;99.90;;;;;;5055978;28;20035;-89
2021/01/25 01:25:28;;;;;;;0.10;0.10;;;8.90;99.90;;;;;;5076619;28;20041;-89
2021/01/25 01:27:54;;;;;;;0.10;0.10;;;8.90;99.90;;;;;;5048742;28;20505;-89
2021/01/25 01:30:20;;;;;;;0.00;0.00;;;8.90;99.90;;;;;;5070524;28;20040;-89
2021/01/25 01:32:46;;;;;;;0.10;0.10;;;9.00;99.90;;;;;;5070297;28;20040;-89
2021/01/25 01:35:12;;;;;;;0.10;0.10;;;8.90;99.90;;;;;;5052542;28;20028;-89
2021/01/25 01:37:38;;;;;;;0.03;0.03;;;8.90;99.90;;;;;;5070379;28;20021;-89
2021/01/25 01:40:10;;;;;;;0.00;0.00;;;8.90;99.90;;;;;;5052586;28;20017;-89
2021/01/25 01:42:36;;;;;;;0.40;0.40;;;8.90;99.90;;;;;;5052630;28;20029;-89
2021/01/25 01:45:04;;;;;;;0.08;0.08;;;8.90;99.90;;;;;;5066262;28;20025;-89
2021/01/25 01:47:31;;;;;;;0.00;0.00;;;8.90;99.90;;;;;;5070877;28;20393;-89
2021/01/25 01:49:57;;;;;;;0.10;0.10;;;8.90;99.90;;;;;;5070941;28;20024;-89
2021/01/25 01:52:23;;;;;;;0.00;0.00;;;8.90;99.90;;;;;;5053515;28;20033;-89
2021/01/25 01:54:50;;;;;;;0.10;0.10;;;8.90;99.90;;;;;;5074162;28;20062;-89
2021/01/25 01:57:16;;;;;;;0.10;0.10;;;8.90;99.90;;;;;;5070287;28;20017;-89
2021/01/25 01:59:42;;;;;;;0.00;0.00;;;9.00;99.90;;;;;;5069806;28;20027;-89
2021/01/25 02:02:08;;;;;;;0.10;0.10;;;9.00;99.90;;;;;;5069579;28;20031;-89
2021/01/25 02:04:34;;;;;;;0.10;0.10;;;8.90;99.90;;;;;;5076277;28;20028;-89
2021/01/25 02:07:03;;;;;;;0.70;0.65;;;8.90;99.90;;;;;;5055611;28;20039;-89
2021/01/25 02:09:32;;;;;;;0.10;0.10;;;9.00;99.90;;;;;;5069700;28;20119;-89
2021/01/25 02:11:58;;;;;;;0.10;0.10;;;8.90;99.90;;;;;;5068972;28;20028;-89
2021/01/25 02:14:25;;;;;;;0.08;0.08;;;8.90;99.90;;;;;;5051684;28;20070;-90
2021/01/25 02:16:51;;;;;;;0.10;0.10;;;9.00;99.90;;;;;;5051260;28;20039;-89
2021/01/25 02:20:05;;;;;;;0.20;0.20;;;9.00;99.90;;;;;;5051063;28;20044;-89
2021/01/25 02:22:37;;;;;;;0.00;0.00;;;9.00;99.90;;;;;;5037147;28;20024;-89
2021/01/25 02:25:24;;;;;;;0.10;0.10;;;8.90;99.90;;;;;;5069271;28;20103;-89
2021/01/25 02:27:51;;;;;;;0.00;0.00;;;8.90;99.90;;;;;;5068226;28;20104;-89
2021/01/25 02:30:18;;;;;;;0.00;0.00;;;8.90;99.90;;;;;;5037947;28;20036;-89
2021/01/25 02:32:46;;;;;;;0.10;0.10;;;8.90;99.90;;;;;;5063031;28;20058;-89
2021/01/25 02:35:15;;;;;;;2.80;0.50;;;9.00;99.90;;;;;;5055639;28;20568;-89
2021/01/25 02:37:43;;;;;;;0.10;0.10;;;8.90;99.90;;;;;;5068735;28;20029;-89
2021/01/25 02:40:12;;;;;;;0.10;0.10;;;8.90;99.90;;;;;;5068947;28;20520;-89
2021/01/25 02:42:40;;;;;;;0.10;0.10;;;8.90;99.90;;;;;;5069187;28;20017;-89
2021/01/25 02:45:07;;;;;;;0.10;0.10;;;8.90;99.90;;;;;;5050232;28;20476;-89
2021/01/25 02:47:35;;;;;;;0.38;0.38;;;8.90;99.90;;;;;;5051094;28;20028;-88
2021/01/25 02:50:01;;;;;;;0.57;0.57;;;8.80;99.90;;;;;;5068367;28;20063;-88
2021/01/25 02:52:27;;;;;;;1.20;0.98;;;8.90;99.90;;;;;;5060903;28;20087;-88
2021/01/25 02:54:54;;;;;;;0.10;0.10;;;8.90;99.90;;;;;;5062865;28;20457;-88
2021/01/25 02:57:20;;;;;;;0.00;0.00;;;9.00;99.90;;;;;;5055052;28;20020;-88
2021/01/25 02:59:48;;;;;;;0.10;0.10;;;9.00;99.90;;;;;;5068065;28;20485;-88
2021/01/25 03:02:15;;;;;;;0.10;0.10;;;9.00;99.90;;;;;;5067566;28;20028;-89
2021/01/25 03:04:42;;;;;;;0.10;0.10;;;9.00;99.90;;;;;;5068455;28;20032;-89
2021/01/25 03:07:08;;;;;;;0.00;0.00;;;9.10;99.90;;;;;;5068256;28;20035;-89
2021/01/25 03:09:34;;;;;;;0.00;0.00;;;9.20;99.90;;;;;;5050509;28;20085;-89
2021/01/25 03:12:05;;;;;;;0.10;0.10;;;9.20;99.90;;;;;;5050130;28;20027;-89
2021/01/25 03:14:31;;;;;;;0.52;0.52;;;9.20;99.90;;;;;;5050529;28;20020;-89
2021/01/25 03:16:57;;;;;;;0.07;0.07;;;9.20;99.90;;;;;;5068319;28;20090;-89
2021/01/25 03:19:23;;;;;;;0.10;0.10;;;9.20;99.90;;;;;;5061245;28;20124;-89
2021/01/25 03:21:52;;;;;;;0.10;0.10;;;9.20;99.90;;;;;;5068298;28;20027;-88
2021/01/25 03:24:18;;;;;;;0.00;0.00;;;9.20;99.90;;;;;;5054383;28;20036;-89
2021/01/25 03:26:44;;;;;;;0.10;0.10;;;9.20;99.90;;;;;;5076745;28;20020;-89
2021/01/25 03:29:11;;;;;;;0.08;0.08;;;9.20;99.90;;;;;;5067919;28;20032;-88
2021/01/25 03:31:37;;;;;;;0.10;0.10;;;9.20;99.90;;;;;;5068369;28;20021;-89
2021/01/25 03:34:04;;;;;;;0.47;0.47;;;9.10;99.90;;;;;;5068102;28;20029;-88
2021/01/25 03:36:30;;;;;;;;;;;9.10;99.90;;;;;;5068619;28;20025;-89
2021/01/25 03:38:57;;;;;;;0.00;0.00;;;9.10;99.90;;;;;;5086343;28;19984;-88
2021/01/25 03:41:23;;;;;;;0.10;0.10;;;8.90;99.90;;;;;;5057352;28;20021;-88
2021/01/25 03:43:49;;;;;;;0.10;0.10;;;8.90;99.90;;;;;;5050255;28;20142;-88
2021/01/25 03:46:14;;;;;;;0.10;0.10;;;8.80;99.90;;;;;;5068057;28;20564;-88
2021/01/25 03:48:40;;;;;;;0.40;0.40;;;8.80;99.90;;;;;;5050442;28;20750;-87
2021/01/25 03:51:06;;;;;;;0.10;0.10;;;8.90;99.90;;;;;;5068545;28;20032;-88
2021/01/25 03:53:32;;;;;;;0.10;0.10;;;8.90;99.90;;;;;;5049769;28;20397;-89
2021/01/25 03:55:58;;;;;;;0.10;0.10;;;8.90;99.90;;;;;;5068183;28;20025;-89
2021/01/25 03:58:25;;;;;;;1.55;0.40;;;9.00;99.90;;;;;;5067526;28;20020;-88
2021/01/25 04:00:50;;;;;;;0.00;0.00;;;8.90;99.90;;;;;;5050069;28;20515;-88
2021/01/25 04:03:16;;;;;;;0.10;0.10;;;8.90;99.90;;;;;;5049538;28;20274;-88
2021/01/25 04:05:42;;;;;;;0.00;0.00;;;8.80;99.90;;;;;;5068055;28;20025;-89
2021/01/25 04:08:08;;;;;;;0.10;0.10;;;8.80;99.90;;;;;;5068452;28;20082;-88
2021/01/25 04:10:34;;;;;;;0.00;0.00;;;8.70;99.90;;;;;;5067233;28;20294;-88
2021/01/25 04:13:00;;;;;;;0.47;0.47;;;8.80;99.90;;;;;;5061571;28;20029;-88
2021/01/25 04:15:25;;;;;;;0.05;0.05;;;8.80;99.90;;;;;;5060890;28;20032;-89
2021/01/25 04:17:51;;;;;;;0.00;0.00;;;8.70;99.90;;;;;;5049983;28;20055;-88
2021/01/25 04:20:17;;;;;;;0.10;0.10;;;8.70;99.90;;;;;;5049708;28;20052;-88
2021/01/25 04:22:43;;;;;;;0.20;0.20;;;8.70;99.90;;;;;;5047289;28;20105;-89
2021/01/25 04:25:09;;;;;;;0.00;0.00;;;8.70;99.90;;;;;;5056850;28;20389;-89
2021/01/25 04:27:35;;;;;;;0.20;0.20;;;8.70;99.90;;;;;;5049892;28;20109;-88
2021/01/25 04:30:04;;;;;;;0.10;0.10;;;8.70;99.90;;;;;;5067814;28;20029;-88
2021/01/25 04:32:29;;;;;;;0.05;0.05;;;8.80;99.90;;;;;;5049576;28;20033;-89
2021/01/25 04:34:55;;;;;;;0.10;0.10;;;8.80;99.90;;;;;;5048889;28;20040;-88
2021/01/25 04:37:21;;;;;;;0.10;0.10;;;8.80;99.90;;;;;;5067675;28;20033;-88
2021/01/25 04:39:47;;;;;;;0.80;0.80;;;8.80;99.90;;;;;;5067334;28;20059;-88
2021/01/25 04:42:13;;;;;;;0.40;0.40;;;8.80;99.90;;;;;;5067810;28;20064;-88
2021/01/25 04:44:39;;;;;;;0.08;0.08;;;8.80;99.90;;;;;;5048883;28;20056;-88
2021/01/25 04:47:05;;;;;;;0.00;0.00;;;8.80;99.90;;;;;;5052135;28;20033;-88
2021/01/25 04:49:32;;;;;;;0.00;0.00;;;8.80;99.90;;;;;;5053216;28;20057;-87
2021/01/25 04:51:59;;;;;;;0.10;0.10;;;8.70;99.90;;;;;;5066240;28;20033;-88
2021/01/25 04:54:26;;;;;;;0.20;0.20;;;8.70;99.90;;;;;;5051170;28;20398;-88
2021/01/25 04:56:53;;;;;;;0.08;0.08;;;8.70;99.90;;;;;;5067703;28;20028;-88
2021/01/25 04:59:19;;;;;;;;;;;8.70;99.90;;;;;;5071498;28;20035;-88
2021/01/25 05:01:45;;;;;;;;;;;8.60;99.90;;;;;;5070813;28;20011;-88
2021/01/25 05:04:11;;;;;;;0.10;0.10;;;8.60;99.90;;;;;;5053162;28;20011;-91
2021/01/25 05:06:36;;;;;;;0.08;0.08;;;8.60;99.90;;;;;;5053166;28;20020;-90
2021/01/25 05:09:04;;;;;;;0.25;0.25;;;8.60;99.90;;;;;;5071421;28;20104;-90
2021/01/25 05:11:29;;;;;;;;;;;8.50;99.90;;;;;;5052197;28;20060;-91
2021/01/25 05:14:03;;;;;;;0.00;0.00;;;8.50;99.90;;;;;;5051979;28;19976;-91
2021/01/25 05:16:30;;;;;;;0.10;0.10;;;8.50;99.90;;;;;;5070467;28;20104;-92
2021/01/25 05:18:58;;;;;;;0.05;0.05;;;8.50;99.90;;;;;;5078062;28;20075;-90
2021/01/25 05:21:53;;;;;;;0.03;0.03;;;8.40;99.90;;;;;;5051450;28;20062;-91
2021/01/25 05:24:19;;;;;;;0.57;0.52;;;8.40;99.90;;;;;;5042864;28;20036;-92
2021/01/25 05:26:51;;;;;;;0.17;0.17;;;8.30;99.90;;;;;;5067308;28;20025;-90
2021/01/25 05:29:25;;;;;;;0.75;0.75;;;8.30;99.90;;;;;;5070474;28;20124;-94
2021/01/25 05:31:51;;;;;;;0.80;0.80;;;8.30;99.90;;;;;;5050636;28;20161;-92
2021/01/25 05:34:20;;;;;;;0.00;0.00;;;8.20;99.90;;;;;;5072108;28;20111;-89
2021/01/25 05:36:47;;;;;;;0.10;0.10;;;8.20;99.90;;;;;;5075280;28;21008;-90
2021/01/25 05:39:19;;;;;;;0.10;0.10;;;8.20;99.90;;;;;;5053014;28;20028;-91
2021/01/25 05:42:00;;;;;;;1.10;1.10;;;8.20;99.90;;;;;;5070391;28;20408;-89
2021/01/25 05:44:26;;;;;;;0.10;0.10;;;8.20;99.90;;;;;;5050988;28;20658;-90
2021/01/25 05:47:12;;;;;;;0.85;0.85;;;8.10;99.90;;;;;;5069198;28;20025;-90
2021/01/25 05:49:38;;;;;;;1.10;0.77;;;8.20;99.90;;;;;;5066674;28;20033;-92
2021/01/25 05:52:05;;;;;;;0.10;0.10;;;8.20;99.90;;;;;;5068921;28;20107;-90
2021/01/25 05:54:31;;;;;;;0.30;0.30;;;8.20;99.90;;;;;;5051526;28;20108;-90
2021/01/25 05:56:57;;;;;;;0.10;0.10;;;8.10;99.90;;;;;;5065233;28;20032;-90
2021/01/25 05:59:22;;;;;;;1.55;0.98;;;8.10;99.90;;;;;;5041439;28;20830;-91
2021/01/25 06:01:49;;;;;;;1.25;0.90;;;8.10;99.90;;;;;;5051139;28;20033;-91
2021/01/25 06:04:21;;;;;;;0.30;0.28;;;8.20;99.90;;;;;;5069229;28;20035;-91
2021/01/25 06:07:02;;;;;;;0.85;0.55;;;8.20;99.90;;;;;;5068414;28;20036;-91
2021/01/25 06:09:43;;;;;;;0.30;0.30;;;8.20;99.90;;;;;;5069000;28;20103;-92
2021/01/25 06:12:09;;;;;;;1.05;0.93;;;8.20;99.90;;;;;;5051274;28;20020;-91
2021/01/25 06:14:41;;;;;;;0.00;0.00;;;8.20;99.90;;;;;;5075216;28;20449;-91
2021/01/25 06:17:09;;;;;;;0.10;0.10;;;8.20;99.90;;;;;;5069135;28;20028;-91
2021/01/25 06:19:35;;;;;;;4.55;1.33;;;8.10;99.90;;;;;;5051264;28;20048;-91
2021/01/25 06:22:01;;;;;;;1.13;0.45;;;8.10;99.90;;;;;;5051137;28;20145;-90
2021/01/25 06:24:29;;;;;;;0.10;0.10;;;8.10;99.90;;;;;;5066408;28;20047;-89
2021/01/25 06:26:55;;;;;;;0.15;0.15;;;8.10;99.90;;;;;;5058005;28;20040;-90
2021/01/25 06:29:23;;;;;;;0.10;0.10;;;8.00;73.70;;;;;;5067090;28;20042;-90
2021/01/25 06:31:55;;;;;;;0.20;0.20;;;7.90;1.00;;;;;;5066562;28;20034;-90
2021/01/25 06:34:21;;;;;;;0.08;0.08;;;7.90;99.90;;;;;;5059878;28;20498;-89
2021/01/25 06:36:50;;;;;;;0.20;0.20;;;7.80;54.70;;;;;;5050442;28;20028;-90
2021/01/25 06:39:25;;;;;;;0.17;0.17;;;7.80;1.00;;;;;;5048387;28;20050;-91
2021/01/25 06:42:03;;;;;;;0.10;0.10;;;7.70;1.00;;;;;;5067338;28;20772;-90
2021/01/25 06:44:30;;;;;;;0.10;0.10;;;7.70;1.00;;;;;;5059838;28;20063;-92
2021/01/25 06:46:57;;;;;;;;;;;7.70;99.90;;;;;;5068605;28;20882;-90
2021/01/25 06:49:24;;;;;;;0.10;0.10;;;7.70;99.90;;;;;;5062517;28;19954;-90
2021/01/25 06:51:52;;;;;;;0.50;0.50;;;7.70;99.90;;;;;;5065909;28;20064;-91
2021/01/25 06:54:24;;;;;;;0.80;0.80;;;7.70;99.90;;;;;;5050411;28;20028;-91
2021/01/25 06:56:58;;;;;;;0.15;0.15;;;7.70;99.90;;;;;;5060104;28;20021;-90
2021/01/25 06:59:26;;;;;;;1.17;1.13;;;7.60;59.60;;;;;;5064101;28;20020;-90
2021/01/25 07:01:53;;;;;;;0.10;0.10;;;7.70;95.00;;;;;;5064068;28;20025;-90
2021/01/25 07:04:24;;;;;;;0.30;0.30;;;7.70;99.90;;;;;;5064399;28;20032;-90
2021/01/25 07:06:55;;;;;;;0.22;0.22;;;7.80;99.90;;;;;;5045384;28;20024;-90
2021/01/25 07:09:28;;;;;;;0.20;0.20;;;7.80;99.90;;;;;;5063555;28;20070;-89
2021/01/25 07:11:57;;;;;;;0.40;0.40;;;7.80;58.60;;;;;;5059218;28;20029;-89
2021/01/25 07:14:28;;;;;;;0.75;0.73;;;7.80;99.90;;;;;;5049232;28;20024;-89
2021/01/25 07:16:56;;;;;;;0.35;0.35;;;7.70;99.90;;;;;;5059360;28;20111;-89
2021/01/25 07:19:22;;;;;;;0.82;0.82;;;7.70;99.90;;;;;;5059012;28;20541;-89
2021/01/25 07:21:49;;;;;;;0.10;0.10;;;7.70;99.90;;;;;;5042114;28;20090;-91
2021/01/25 07:24:26;;;;;;;0.15;0.15;;;7.70;99.90;;;;;;5070329;28;20032;-91
2021/01/25 07:26:58;;;;;;;0.10;0.10;;;7.70;99.90;;;;;;5063643;28;20021;-89
2021/01/25 07:29:25;;;;;;;1.05;0.90;;;7.60;67.00;;;;;;5068530;28;20035;-90
2021/01/25 07:31:53;;;;;;;0.10;0.10;;;7.60;1.00;;;;;;5067341;28;20548;-90
2021/01/25 07:34:19;;;;;;;0.45;0.45;;;7.70;1.00;;;;;;5054995;28;20045;-90
2021/01/25 07:36:45;;;;;;;0.52;0.52;;;7.60;99.90;;;;;;5068044;28;20869;-90
2021/01/25 07:39:13;;;;;;;0.22;0.22;;;7.50;96.80;;;;;;5050485;28;20564;-89
2021/01/25 07:41:40;;;;;;;0.08;0.08;;;7.40;1.00;;;;;;5050163;28;20024;-89
2021/01/25 07:44:07;;;;;;;0.80;0.70;;;7.40;1.00;;;;;;5049237;28;20123;-89
2021/01/25 07:46:33;;;;;;;0.10;0.10;;;7.30;99.90;;;;;;5036335;28;20037;-89
2021/01/25 07:48:59;;;;;;;0.10;0.10;;;7.30;99.90;;;;;;5064601;28;20036;-89
2021/01/25 07:51:27;;;;;;;11.32;1.85;;;7.30;99.90;;;;;;5073858;28;20098;-89
2021/01/25 07:53:54;;;;;;;0.10;0.10;;;7.30;99.90;;;;;;5060119;28;20507;-89
2021/01/25 07:56:24;;;;;;;0.30;0.30;;;7.30;53.70;;;;;;5067129;28;20486;-89
2021/01/25 07:59:01;;;;;;;0.30;0.30;;;7.30;99.90;;;;;;5067592;28;20093;-90
2021/01/25 08:01:31;;;;;;;0.38;0.38;;;7.30;99.90;;;;;;5067850;28;20025;-90
2021/01/25 08:04:02;;;;;;;15.75;10.40;;;7.20;99.90;;;;;;5067266;28;20028;-88
2021/01/25 08:06:35;;;;;;;8.38;6.70;;;7.30;99.90;;;;;;5050379;28;20115;-87
2021/01/25 08:09:12;;;;;;;7.40;6.75;;;7.30;99.90;;;;;;5048876;28;20563;-88
2021/01/25 08:11:40;;;;;;;6.07;5.47;;;7.30;1.00;;;;;;5067157;28;20016;-88
2021/01/25 08:14:27;;;;;;;2.92;2.67;;;7.20;99.90;;;;;;5048803;28;20033;-89
2021/01/25 08:17:00;;;;;;;1.05;1.05;;;7.30;99.90;;;;;;5067561;28;20556;-89
2021/01/25 08:19:31;;;;;;;0.55;0.32;;;7.30;99.90;;;;;;5067425;28;20135;-89
2021/01/25 08:22:04;;;;;;;0.20;0.20;;;7.20;99.90;;;;;;5043046;28;20102;-89
2021/01/25 08:24:32;;;;;;;0.10;0.10;;;7.20;99.90;;;;;;5078641;28;20082;-89
2021/01/25 08:27:06;;;;;;;0.10;0.10;;;7.20;1.00;;;;;;5070883;28;20063;-89
2021/01/25 08:29:32;;;;;;;0.10;0.10;;;7.40;1.00;;;;;;5056990;28;20088;-89
2021/01/25 08:31:58;;;;;;;0.03;0.03;;;7.50;99.90;;;;;;5071375;28;20056;-89
2021/01/25 08:34:26;;;;;;;0.38;0.38;;;7.40;99.90;;;;;;5071493;28;20052;-88
2021/01/25 08:36:59;;;;;;;0.00;0.00;;;7.50;99.90;;;;;;5039600;28;20035;-89
2021/01/25 08:39:43;;;;;;;0.10;0.10;;;7.60;1.00;;;;;;5052866;28;20032;-89
2021/01/25 08:42:25;;;;;;;0.52;0.52;;;7.50;60.30;;;;;;5059091;28;20074;-89
2021/01/25 08:44:54;;;;;;;0.10;0.10;;;7.30;99.90;;;;;;5066100;28;20402;-88
2021/01/25 08:47:29;;;;;;;0.10;0.10;;;7.40;99.90;;;;;;5070994;28;20052;-89
2021/01/25 08:49:55;;;;;;;0.10;0.10;;;7.40;99.90;;;;;;5053249;28;20036;-89
2021/01/25 08:52:31;;;;;;;0.10;0.10;;;7.40;99.90;;;;;;5052893;28;20569;-89
2021/01/25 08:55:24;;;;;;;0.00;0.00;;;7.30;99.90;;;;;;5071058;28;20032;-89
2021/01/25 08:57:52;;;;;;;0.00;0.00;;;7.20;99.90;;;;;;5070822;28;20021;-89
2021/01/25 09:00:26;;;;;;;0.05;0.05;;;7.20;1.00;;;;;;5067675;28;20056;-89
2021/01/25 09:02:59;;;;;;;0.17;0.17;;;7.40;99.90;;;;;;5033001;28;20028;-89
2021/01/25 09:05:25;;;;;;;0.10;0.10;;;7.40;99.90;;;;;;5064884;28;20021;-89
2021/01/25 09:07:52;;;;;;;0.10;0.10;;;7.50;17.80;;;;;;5060558;28;20579;-89
2021/01/25 09:10:18;;;;;;;0.08;0.08;;;7.60;99.90;;;;;;5070755;28;20662;-89
2021/01/25 09:12:44;;;;;;;0.30;0.30;;;7.80;99.90;;;;;;5070920;28;20097;-89
2021/01/25 09:15:11;;;;;;;0.00;0.00;;;7.70;99.90;;;;;;5053118;28;20059;-89
2021/01/25 09:17:37;;;;;;;0.10;0.10;;;7.70;1.00;;;;;;5070542;28;20036;-89
2021/01/25 09:20:05;;;;;;;0.10;0.10;;;7.60;1.00;;;;;;5052798;28;20041;-89
2021/01/25 09:22:32;;;;;;;0.00;0.00;;;7.90;74.00;;;;;;5052508;28;20149;-89
2021/01/25 09:24:58;;;;;;;0.00;0.00;;;8.10;99.90;;;;;;5060622;28;20027;-89
2021/01/25 09:27:24;;;;;;;0.20;0.20;;;8.50;99.90;;;;;;5067441;28;20032;-89
2021/01/25 09:29:50;;;;;;;0.10;0.10;;;8.40;99.90;;;;;;5052943;28;20024;-88
2021/01/25 09:32:16;;;;;;;0.60;0.60;;;8.50;1.00;;;;;;5052385;28;20036;-89
2021/01/25 09:34:42;;;;;;;0.10;0.10;;;8.30;1.00;;;;;;5070505;28;20543;-89
2021/01/25 09:37:09;;;;;;;0.00;0.00;;;8.10;1.00;;;;;;5070880;28;20101;-89
2021/01/25 09:39:36;;;;;;;0.13;0.13;;;8.10;1.00;;;;;;5070463;28;20023;-89
2021/01/25 09:42:03;;;;;;;0.10;0.10;;;8.10;1.00;;;;;;5071016;28;20040;-89
2021/01/25 09:44:29;;;;;;;;;;;8.30;1.00;;;;;;5053474;28;20111;-89
2021/01/25 09:46:56;;;;;;;0.10;0.10;;;8.40;1.00;;;;;;5070653;28;19988;-88
2021/01/25 09:49:23;;;;;;;0.10;0.10;;;8.30;1.00;;;;;;5070986;28;20032;-89
2021/01/25 09:51:48;;;;;;;0.20;0.20;;;8.40;1.00;;;;;;5070290;28;20024;-89
2021/01/25 09:54:14;;;;;;;0.10;0.10;;;8.50;1.00;;;;;;5070527;28;20454;-89
2021/01/25 09:56:40;;;;;;;0.10;0.10;;;8.50;1.00;;;;;;5070267;28;20502;-89
2021/01/25 09:59:06;;;;;;;0.10;0.10;;;8.50;1.00;;;;;;5052453;28;20085;-88
2021/01/25 10:01:32;;;;;;;0.10;0.10;;;8.50;1.00;;;;;;5052858;28;20024;-89
2021/01/25 10:03:58;;;;;;;0.00;0.00;;;8.40;1.00;;;;;;5052154;28;20063;-88
2021/01/25 10:06:27;;;;;;;3.57;1.70;;;8.00;1.00;;;;;;5070492;28;20021;-88
2021/01/25 10:08:54;;;;;;;0.10;0.10;;;7.90;1.00;;;;;;5052068;28;20267;-88
2021/01/25 10:11:20;;;;;;;1.02;0.90;;;7.50;1.00;;;;;;5070305;28;20029;-88
2021/01/25 10:13:46;;;;;;;0.10;0.10;;;7.00;1.00;;;;;;5050487;28;20068;-89
2021/01/25 10:16:11;;;;;;;0.10;0.10;;;7.00;1.00;;;;;;5040621;28;20052;-89
2021/01/25 10:18:37;;;;;;;0.00;0.00;;;7.10;1.00;;;;;;5052302;28;20048;-88
2021/01/25 10:21:03;;;;;;;0.00;0.00;;;7.30;9.00;;;;;;5052112;28;20090;-89
2021/01/25 10:23:29;;;;;;;0.57;0.40;;;7.90;11.90;;;;;;5052159;28;20028;-89
2021/01/25 10:25:55;;;;;;;0.10;0.10;;;8.20;1.00;;;;;;5051465;28;20091;-89
2021/01/25 10:28:21;;;;;;;0.70;0.70;;;8.10;1.00;;;;;;5070017;28;20135;-89
2021/01/25 10:30:47;;;;;;;0.10;0.10;;;8.40;1.00;;;;;;5069842;28;20123;-89
2021/01/25 10:33:14;;;;;;;0.10;0.10;;;7.90;1.00;;;;;;5048253;28;20553;-89
2021/01/25 10:35:40;;;;;;;0.10;0.10;;;7.40;1.00;;;;;;5042183;28;20033;-89
2021/01/25 10:38:06;;;;;;;0.10;0.10;;;6.90;99.90;;;;;;5069665;28;20068;-89
2021/01/25 10:40:32;;;;;;;0.10;0.10;;;7.40;99.90;;;;;;5051849;28;20052;-88
2021/01/25 10:42:58;;;;;;;0.10;0.10;;;8.10;99.90;;;;;;5037498;28;20482;-89
2021/01/25 10:45:25;;;;;;;0.57;0.57;;;8.30;99.90;;;;;;5069272;28;20065;-88
2021/01/25 10:47:50;;;;;;;0.45;0.45;;;8.50;99.90;;;;;;5069533;28;20021;-88
2021/01/25 10:50:16;;;;;;;0.30;0.30;;;8.80;99.90;;;;;;5036991;28;20024;-88
2021/01/25 10:52:45;;;;;;;0.25;0.25;;;10.00;99.90;;;;;;5051401;28;20035;-88
2021/01/25 10:55:12;;;;;;;0.20;0.20;;;10.30;99.90;;;;;;5069065;28;20020;-89
2021/01/25 10:57:38;;;;;;;0.10;0.10;;;10.20;99.90;;;;;;5069325;28;20032;-89
2021/01/25 11:00:18;;;;;;;0.10;0.10;;;9.80;99.90;;;;;;5050681;28;20451;-89
2021/01/25 11:02:44;;;;;;;0.10;0.10;;;10.30;99.90;;;;;;5051045;28;20024;-88
2021/01/25 11:05:12;;;;;;;0.10;0.10;;;9.60;99.90;;;;;;5068923;28;20028;-89
2021/01/25 11:07:38;;;;;;;0.32;0.32;;;8.80;99.90;;;;;;5068897;28;20036;-89
2021/01/25 11:10:06;;;;;;;0.10;0.10;;;9.60;99.90;;;;;;5068345;28;20020;-89
2021/01/25 11:12:32;;;;;;;0.22;0.22;;;9.80;99.90;;;;;;5068431;28;20044;-89
2021/01/25 11:14:57;;;;;;;0.10;0.10;;;9.50;99.90;;;;;;5050728;28;20020;-89
2021/01/25 11:17:23;;;;;;;0.10;0.10;;;8.90;99.90;;;;;;5054131;28;20032;-89
2021/01/25 11:19:49;;;;;;;0.73;0.73;;;9.10;99.90;;;;;;5041003;28;20047;-89
2021/01/25 11:22:14;;;;;;;8.45;1.13;;;9.50;99.90;;;;;;5045989;28;20033;-89
2021/01/25 11:24:41;;;;;;;0.15;0.15;;;9.70;99.90;;;;;;5042679;28;20144;-89
2021/01/25 11:27:07;;;;;;;0.35;0.35;;;9.80;99.90;;;;;;5062083;28;20103;-89
2021/01/25 11:29:34;;;;;;;0.13;0.13;;;9.30;99.90;;;;;;5068043;28;20474;-89
2021/01/25 11:32:00;;;;;;;;;;;9.60;99.90;;;;;;5050753;28;20035;-89
2021/01/25 11:34:27;;;;;;;0.82;0.75;;;9.90;99.90;;;;;;5049854;28;20003;-89
2021/01/25 11:36:53;;;;;;;0.10;0.10;;;10.60;99.90;;;;;;5050352;28;20564;-89
2021/01/25 11:39:19;;;;;;;0.10;0.10;;;11.10;99.90;;;;;;5068165;28;20023;-90
2021/01/25 11:41:45;;;;;;;0.10;0.10;;;11.80;99.90;;;;;;5050499;28;20330;-89
2021/01/25 11:44:11;;;;;;;0.65;0.65;;;9.00;99.90;;;;;;5067789;28;20032;-90
2021/01/25 11:46:37;;;;;;;0.10;0.10;;;8.30;99.90;;;;;;5068207;28;20065;-89
2021/01/25 11:49:03;;;;;;;0.10;0.10;;;8.40;99.90;;;;;;5068374;28;20111;-90
2021/01/25 11:51:29;;;;;;;0.30;0.30;;;8.50;99.90;;;;;;5049177;28;20111;-89
2021/01/25 11:53:55;;;;;;;2.05;1.08;;;8.80;99.90;;;;;;5055448;28;20025;-89
2021/01/25 11:56:21;;;;;;;0.20;0.20;;;8.90;99.90;;;;;;5059055;28;20024;-89
2021/01/25 11:58:46;;;;;;;0.20;0.20;;;8.60;99.90;;;;;;5057310;28;20090;-89
2021/01/25 12:01:12;;;;;;;0.10;0.10;;;8.40;99.90;;;;;;5072973;28;20044;-89
2021/01/25 12:03:38;;;;;;;0.10;0.10;;;8.00;99.90;;;;;;5072188;28;20032;-89
2021/01/25 12:06:04;;;;;;;0.10;0.10;;;8.00;99.90;;;;;;5046164;28;20025;-88
2021/01/25 12:08:35;;;;;;;0.10;0.10;;;7.90;99.90;;;;;;5066695;28;20086;-88
2021/01/25 12:11:04;;;;;;;0.10;0.10;;;8.60;99.90;;;;;;5065135;28;20108;-89
2021/01/25 12:13:30;;;;;;;0.10;0.10;;;9.90;99.90;;;;;;5065956;28;20024;-89
2021/01/25 12:15:56;;;;;;;0.20;0.20;;;10.10;99.90;;;;;;5072538;28;20027;-89
2021/01/25 12:18:22;;;;;;;1.25;0.98;;;9.30;99.90;;;;;;5053896;28;20036;-89
2021/01/25 12:20:48;;;;;;;0.10;0.10;;;8.50;99.90;;;;;;5053365;28;20103;-89
2021/01/25 12:23:14;;;;;;;1.45;1.10;;;7.90;99.90;;;;;;5054076;28;20141;-88
2021/01/25 12:25:40;;;;;;;0.30;0.30;;;7.60;99.90;;;;;;5053393;28;20064;-89
2021/01/25 12:28:07;;;;;;;0.10;0.10;;;7.30;99.90;;;;;;5054054;28;20541;-89
2021/01/25 12:30:33;;;;;;;0.10;0.10;;;7.20;99.90;;;;;;5071361;28;20024;-89
2021/01/25 12:32:59;;;;;;;0.10;0.10;;;7.00;99.90;;;;;;5071780;28;20383;-89
2021/01/25 12:35:26;;;;;;;0.10;0.10;;;6.70;99.90;;;;;;5071730;28;20031;-89
2021/01/25 12:37:53;;;;;;;0.10;0.10;;;6.80;99.90;;;;;;5053438;28;20081;-89
2021/01/25 12:40:20;;;;;;;0.10;0.10;;;6.80;99.90;;;;;;5053438;28;20056;-89
2021/01/25 12:42:46;;;;;;;1.02;0.80;;;6.60;99.90;;;;;;5071104;28;20028;-88
2021/01/25 12:45:13;;;;;;;0.20;0.20;;;6.50;99.90;;;;;;5071089;28;20088;-89
2021/01/25 12:47:39;;;;;;;0.10;0.10;;;6.40;99.90;;;;;;5052884;28;20029;-89
2021/01/25 12:50:06;;;;;;;0.20;0.20;;;6.30;99.90;;;;;;5070914;28;20028;-89
2021/01/25 12:52:33;;;;;;;0.10;0.10;;;6.20;99.90;;;;;;5070947;28;20050;-89
2021/01/25 12:55:00;;;;;;;0.10;0.10;;;6.10;99.90;;;;;;5071073;28;20485;-89
2021/01/25 12:57:26;;;;;;;0.10;0.10;;;6.10;99.90;;;;;;5052945;28;20472;-90
2021/01/25 12:59:51;;;;;;;0.10;0.10;;;6.50;99.90;;;;;;5053000;28;20042;-89
2021/01/25 13:02:17;;;;;;;0.10;0.10;;;6.40;99.90;;;;;;5070453;28;20097;-89